Naiad — WAGB — position and weather

sailwx.info

Track history (hours):
 
Tides and Currents Weather Stations Pressure Air Temp Water Temp Dewpoint Dewpoint Depression Visibility Wind Speed Wind Dir Waves Ship Positions

Naiad

Owner: S.E. Combined Services of CA, SAN FRANCISCO, CA. More information available from US FCC via Universal Licensing System and Coast Guard Vessel Documentation Center.

Last reported at 2018-Jul-19 09:20 UTC. Time now 2018-Jul-19 09:44 UTC.
Position N 37°49' W 122°25'.

Length 17 m.

Type: Passenger vessel. MMSI: 366864140.

Date/timePositionNaut miles runAvg speedWind from/ knotsBaromVisibWave heightAir tempDewpointWater temp
2018-Jul-19 09:20N 37°49' W 122°25'0 0.0
2018-Jul-19 08:50N 37°49' W 122°25'0 0.0
2018-Jul-19 08:25N 37°49' W 122°25'0 0.0
2018-Jul-19 07:52N 37°49' W 122°25'0 0.0
2018-Jul-19 07:23N 37°49' W 122°25'0 0.0
2018-Jul-19 06:47N 37°49' W 122°25'0 0.0
2018-Jul-19 06:12N 37°49' W 122°25'0 0.0
2018-Jul-19 05:54N 37°49' W 122°25'0 0.0
2018-Jul-19 05:00N 37°49' W 122°25'0 0.0
2018-Jul-19 04:28N 37°49' W 122°25'0 0.0
2018-Jul-19 03:58N 37°49' W 122°25'0 0.0
2018-Jul-19 03:28N 37°49' W 122°25'0 0.0
2018-Jul-19 02:58N 37°49' W 122°25'0 0.0
2018-Jul-19 02:20N 37°49' W 122°25'0 0.0
2018-Jul-19 01:50N 37°49' W 122°25'0 0.0
2018-Jul-19 01:02N 37°49' W 122°25'0 0.0
2018-Jul-19 00:41N 37°49' W 122°25'0 0.0
2018-Jul-19 00:20N 37°49' W 122°25'0 0.0
2018-Jul-18 23:11N 37°49' W 122°25'0 0.0
2018-Jul-18 22:53N 37°49' W 122°25'0 0.0
2018-Jul-18 20:58N 37°49' W 122°25'0 0.0
2018-Jul-18 20:28N 37°49' W 122°25'0 0.0
2018-Jul-18 19:58N 37°49' W 122°25'0 0.0
2018-Jul-18 19:07N 37°49' W 122°25'0 0.0
2018-Jul-18 18:55N 37°49' W 122°25'1 2.0
2018-Jul-18 18:30N 37°49' W 122°26'3 5.6
2018-Jul-18 17:58N 37°48' W 122°29'4 3.5
2018-Jul-18 16:55N 37°49' W 122°25'3 7.4
2018-Jul-18 16:30N 37°50' W 122°28'3 0.4
2018-Jul-18 09:39N 37°49' W 122°25'0 0.0
2018-Jul-18 09:09N 37°49' W 122°25'0 0.0
2018-Jul-18 07:51N 37°49' W 122°25'0 0.0
2018-Jul-18 07:27N 37°49' W 122°25'0 0.0
2018-Jul-18 06:57N 37°49' W 122°25'0 0.0
2018-Jul-18 06:27N 37°49' W 122°25'0 0.0
2018-Jul-18 05:57N 37°49' W 122°25'0 0.0
2018-Jul-18 05:25N 37°49' W 122°25'0 0.0
2018-Jul-18 04:43N 37°49' W 122°25'0 0.0
2018-Jul-18 04:19N 37°49' W 122°25'0 0.0
2018-Jul-18 03:49N 37°49' W 122°25'0 0.0
2018-Jul-18 03:25N 37°49' W 122°25'0 0.0
2018-Jul-18 02:37N 37°49' W 122°25'0 0.0
2018-Jul-18 02:19N 37°49' W 122°25'0 0.0
2018-Jul-18 01:55N 37°49' W 122°25'0 0.0
2018-Jul-18 00:52N 37°49' W 122°25'0 0.0
2018-Jul-18 00:27N 37°49' W 122°25'0 0.0
2018-Jul-17 20:33N 37°49' W 122°25'0 0.0
2018-Jul-17 20:21N 37°49' W 122°25'0 0.0
2018-Jul-17 18:17N 37°49' W 122°25'0 0.0
2018-Jul-17 17:59N 37°49' W 122°25'0 0.0
2018-Jul-17 00:46N 37°49' W 122°25'0 0.0
2018-Jul-16 15:52N 37°49' W 122°25'0 0.0
2018-Jul-16 13:16N 37°49' W 122°25'0 0.0
2018-Jul-16 12:58N 37°49' W 122°25'0 0.0
2018-Jul-16 12:22N 37°49' W 122°25'0 0.0
2018-Jul-16 11:46N 37°49' W 122°25'0 0.0
2018-Jul-16 11:28N 37°49' W 122°25'0 0.0
2018-Jul-16 10:52N 37°49' W 122°25'0 0.0
2018-Jul-16 10:28N 37°49' W 122°25'0 0.0
2018-Jul-16 09:58N 37°49' W 122°25'0 0.0
2018-Jul-16 09:28N 37°49' W 122°25'0 0.0
2018-Jul-16 08:58N 37°49' W 122°25'0 0.0
2018-Jul-16 08:28N 37°49' W 122°25'0 0.0
2018-Jul-16 07:58N 37°49' W 122°25'0 0.0
2018-Jul-16 07:28N 37°49' W 122°25'0 0.0
2018-Jul-16 06:46N 37°49' W 122°25'0 0.0
2018-Jul-16 06:28N 37°49' W 122°25'0 0.0
2018-Jul-16 05:57N 37°49' W 122°25'0 0.0
2018-Jul-16 05:27N 37°49' W 122°25'0 0.0
2018-Jul-16 04:51N 37°49' W 122°25'0 0.0
2018-Jul-16 04:15N 37°49' W 122°25'0 0.0
2018-Jul-16 03:39N 37°49' W 122°25'0 0.0
2018-Jul-16 03:21N 37°49' W 122°25'0 0.0
2018-Jul-15 23:45N 37°49' W 122°25'0 0.0
2018-Jul-15 20:49N 37°49' W 122°25'3 8.5
2018-Jul-15 20:27N 37°50' W 122°28'3 4.8
2018-Jul-15 19:47N 37°49' W 122°25'0 0.0
2018-Jul-15 19:29N 37°49' W 122°25'1 1.8
2018-Jul-15 19:00N 37°49' W 122°25'3 5.0
2018-Jul-15 18:30N 37°51' W 122°28'3 6.6
2018-Jul-15 17:59N 37°49' W 122°25'0 0.0
2018-Jul-15 01:31N 37°49' W 122°25'0 0.0
2018-Jul-15 01:07N 37°49' W 122°25'0 0.0
2018-Jul-15 00:52N 37°49' W 122°25'0 0.0
2018-Jul-15 00:25N 37°49' W 122°25'0 0.0
2018-Jul-14 21:38N 37°49' W 122°25'0 0.0
2018-Jul-14 21:17N 37°49' W 122°25'0 0.3
2018-Jul-14 21:00N 37°49' W 122°25'3 5.7
2018-Jul-14 20:30N 37°50' W 122°28'3 3.8
2018-Jul-14 19:44N 37°49' W 122°25'0 0.0
2018-Jul-14 19:26N 37°49' W 122°25'1 1.2
2018-Jul-14 19:00N 37°49' W 122°25'3 5.3
2018-Jul-14 18:30N 37°50' W 122°28'2 4.6
2018-Jul-14 18:00N 37°49' W 122°25'1 1.1
2018-Jul-14 17:19N 37°49' W 122°25'0 0.0
2018-Jul-14 01:30N 37°49' W 122°25'0 0.0
2018-Jul-14 00:48N 37°49' W 122°25'0 0.0
2018-Jul-13 23:23N 37°49' W 122°25'0 0.0
2018-Jul-13 20:54N 37°49' W 122°25'3 6.6
2018-Jul-13 20:27N 37°50' W 122°28'3 1.9
2018-Jul-13 18:53N 37°49' W 122°25'4 9.7
2018-Jul-13 18:30N 37°49' W 122°29'4 6.9
2018-Jul-13 17:59N 37°49' W 122°25'0 0.2
2018-Jul-13 17:30N 37°49' W 122°25'0 0.4
2018-Jul-13 16:57N 37°49' W 122°25'4 7.9
2018-Jul-13 16:31N 37°49' W 122°29'4 6.7
2018-Jul-13 15:59N 37°49' W 122°25'0 0.0
2018-Jul-13 03:07N 37°49' W 122°25'0 0.0
2018-Jul-13 01:02N 37°49' W 122°25'0 0.0
2018-Jul-13 00:49N 37°49' W 122°25'0 0.0
2018-Jul-12 23:13N 37°49' W 122°25'0 0.0
2018-Jul-12 22:43N 37°49' W 122°25'0 0.0
2018-Jul-12 22:13N 37°49' W 122°25'0 0.0
2018-Jul-12 21:40N 37°49' W 122°25'0 0.0
2018-Jul-12 21:22N 37°49' W 122°25'0 0.8
2018-Jul-12 21:00N 37°49' W 122°25'3 6.8
2018-Jul-12 20:30N 37°49' W 122°29'4 2.4
2018-Jul-12 19:01N 37°49' W 122°25'0 0.4
2018-Jul-12 18:54N 37°49' W 122°25'4 9.0
2018-Jul-12 18:30N 37°49' W 122°29'4 6.3
2018-Jul-12 17:55N 37°49' W 122°25'0 0.0
2018-Jul-12 17:19N 37°49' W 122°25'0 0.0
2018-Jul-11 17:21N 37°49' W 122°25'0 0.7
2018-Jul-11 16:51N 37°49' W 122°25'2 6.1
2018-Jul-11 16:28N 37°50' W 122°28'  
Track history (hours):
 
Tides and Currents Weather Stations Pressure Air Temp Water Temp Dewpoint Dewpoint Depression Visibility Wind Speed Wind Dir Waves Ship Positions

Naiad

Owner: S.E. Combined Services of CA, SAN FRANCISCO, CA. More information available from US FCC via Universal Licensing System and Coast Guard Vessel Documentation Center.

Last reported at 2018-Jul-19 09:20 UTC. Time now 2018-Jul-19 09:44 UTC.
Position N 37°49' W 122°25'.

Length 17 m.

Type: Passenger vessel. MMSI: 366864140.

Date/timePositionNaut miles runAvg speedWind from/ knotsBaromVisibWave heightAir tempDewpointWater temp
2018-Jul-19 09:20N 37°49' W 122°25'0 0.0
2018-Jul-19 08:50N 37°49' W 122°25'0 0.0
2018-Jul-19 08:25N 37°49' W 122°25'0 0.0
2018-Jul-19 07:52N 37°49' W 122°25'0 0.0
2018-Jul-19 07:23N 37°49' W 122°25'0 0.0
2018-Jul-19 06:47N 37°49' W 122°25'0 0.0
2018-Jul-19 06:12N 37°49' W 122°25'0 0.0
2018-Jul-19 05:54N 37°49' W 122°25'0 0.0
2018-Jul-19 05:00N 37°49' W 122°25'0 0.0
2018-Jul-19 04:28N 37°49' W 122°25'0 0.0
2018-Jul-19 03:58N 37°49' W 122°25'0 0.0
2018-Jul-19 03:28N 37°49' W 122°25'0 0.0
2018-Jul-19 02:58N 37°49' W 122°25'0 0.0
2018-Jul-19 02:20N 37°49' W 122°25'0 0.0
2018-Jul-19 01:50N 37°49' W 122°25'0 0.0
2018-Jul-19 01:02N 37°49' W 122°25'0 0.0
2018-Jul-19 00:41N 37°49' W 122°25'0 0.0
2018-Jul-19 00:20N 37°49' W 122°25'0 0.0
2018-Jul-18 23:11N 37°49' W 122°25'0 0.0
2018-Jul-18 22:53N 37°49' W 122°25'0 0.0
2018-Jul-18 20:58N 37°49' W 122°25'0 0.0
2018-Jul-18 20:28N 37°49' W 122°25'0 0.0
2018-Jul-18 19:58N 37°49' W 122°25'0 0.0
2018-Jul-18 19:07N 37°49' W 122°25'0 0.0
2018-Jul-18 18:55N 37°49' W 122°25'1 2.0
2018-Jul-18 18:30N 37°49' W 122°26'3 5.6
2018-Jul-18 17:58N 37°48' W 122°29'4 3.5
2018-Jul-18 16:55N 37°49' W 122°25'3 7.4
2018-Jul-18 16:30N 37°50' W 122°28'3 0.4
2018-Jul-18 09:39N 37°49' W 122°25'0 0.0
2018-Jul-18 09:09N 37°49' W 122°25'0 0.0
2018-Jul-18 07:51N 37°49' W 122°25'0 0.0
2018-Jul-18 07:27N 37°49' W 122°25'0 0.0
2018-Jul-18 06:57N 37°49' W 122°25'0 0.0
2018-Jul-18 06:27N 37°49' W 122°25'0 0.0
2018-Jul-18 05:57N 37°49' W 122°25'0 0.0
2018-Jul-18 05:25N 37°49' W 122°25'0 0.0
2018-Jul-18 04:43N 37°49' W 122°25'0 0.0
2018-Jul-18 04:19N 37°49' W 122°25'0 0.0
2018-Jul-18 03:49N 37°49' W 122°25'0 0.0
2018-Jul-18 03:25N 37°49' W 122°25'0 0.0
2018-Jul-18 02:37N 37°49' W 122°25'0 0.0
2018-Jul-18 02:19N 37°49' W 122°25'0 0.0
2018-Jul-18 01:55N 37°49' W 122°25'0 0.0
2018-Jul-18 00:52N 37°49' W 122°25'0 0.0
2018-Jul-18 00:27N 37°49' W 122°25'0 0.0
2018-Jul-17 20:33N 37°49' W 122°25'0 0.0
2018-Jul-17 20:21N 37°49' W 122°25'0 0.0
2018-Jul-17 18:17N 37°49' W 122°25'0 0.0
2018-Jul-17 17:59N 37°49' W 122°25'0 0.0
2018-Jul-17 00:46N 37°49' W 122°25'0 0.0
2018-Jul-16 15:52N 37°49' W 122°25'0 0.0
2018-Jul-16 13:16N 37°49' W 122°25'0 0.0
2018-Jul-16 12:58N 37°49' W 122°25'0 0.0
2018-Jul-16 12:22N 37°49' W 122°25'0 0.0
2018-Jul-16 11:46N 37°49' W 122°25'0 0.0
2018-Jul-16 11:28N 37°49' W 122°25'0 0.0
2018-Jul-16 10:52N 37°49' W 122°25'0 0.0
2018-Jul-16 10:28N 37°49' W 122°25'0 0.0
2018-Jul-16 09:58N 37°49' W 122°25'0 0.0
2018-Jul-16 09:28N 37°49' W 122°25'0 0.0
2018-Jul-16 08:58N 37°49' W 122°25'0 0.0
2018-Jul-16 08:28N 37°49' W 122°25'0 0.0
2018-Jul-16 07:58N 37°49' W 122°25'0 0.0
2018-Jul-16 07:28N 37°49' W 122°25'0 0.0
2018-Jul-16 06:46N 37°49' W 122°25'0 0.0
2018-Jul-16 06:28N 37°49' W 122°25'0 0.0
2018-Jul-16 05:57N 37°49' W 122°25'0 0.0
2018-Jul-16 05:27N 37°49' W 122°25'0 0.0
2018-Jul-16 04:51N 37°49' W 122°25'0 0.0
2018-Jul-16 04:15N 37°49' W 122°25'0 0.0
2018-Jul-16 03:39N 37°49' W 122°25'0 0.0
2018-Jul-16 03:21N 37°49' W 122°25'0 0.0
2018-Jul-15 23:45N 37°49' W 122°25'0 0.0
2018-Jul-15 20:49N 37°49' W 122°25'3 8.5
2018-Jul-15 20:27N 37°50' W 122°28'3 4.8
2018-Jul-15 19:47N 37°49' W 122°25'0 0.0
2018-Jul-15 19:29N 37°49' W 122°25'1 1.8
2018-Jul-15 19:00N 37°49' W 122°25'3 5.0
2018-Jul-15 18:30N 37°51' W 122°28'3 6.6
2018-Jul-15 17:59N 37°49' W 122°25'0 0.0
2018-Jul-15 01:31N 37°49' W 122°25'0 0.0
2018-Jul-15 01:07N 37°49' W 122°25'0 0.0
2018-Jul-15 00:52N 37°49' W 122°25'0 0.0
2018-Jul-15 00:25N 37°49' W 122°25'0 0.0
2018-Jul-14 21:38N 37°49' W 122°25'0 0.0
2018-Jul-14 21:17N 37°49' W 122°25'0 0.3
2018-Jul-14 21:00N 37°49' W 122°25'3 5.7
2018-Jul-14 20:30N 37°50' W 122°28'3 3.8
2018-Jul-14 19:44N 37°49' W 122°25'0 0.0
2018-Jul-14 19:26N 37°49' W 122°25'1 1.2
2018-Jul-14 19:00N 37°49' W 122°25'3 5.3
2018-Jul-14 18:30N 37°50' W 122°28'2 4.6
2018-Jul-14 18:00N 37°49' W 122°25'1 1.1
2018-Jul-14 17:19N 37°49' W 122°25'0 0.0
2018-Jul-14 01:30N 37°49' W 122°25'0 0.0
2018-Jul-14 00:48N 37°49' W 122°25'0 0.0
2018-Jul-13 23:23N 37°49' W 122°25'0 0.0
2018-Jul-13 20:54N 37°49' W 122°25'3 6.6
2018-Jul-13 20:27N 37°50' W 122°28'3 1.9
2018-Jul-13 18:53N 37°49' W 122°25'4 9.7
2018-Jul-13 18:30N 37°49' W 122°29'4 6.9
2018-Jul-13 17:59N 37°49' W 122°25'0 0.2
2018-Jul-13 17:30N 37°49' W 122°25'0 0.4
2018-Jul-13 16:57N 37°49' W 122°25'4 7.9
2018-Jul-13 16:31N 37°49' W 122°29'4 6.7
2018-Jul-13 15:59N 37°49' W 122°25'0 0.0
2018-Jul-13 03:07N 37°49' W 122°25'0 0.0
2018-Jul-13 01:02N 37°49' W 122°25'0 0.0
2018-Jul-13 00:49N 37°49' W 122°25'0 0.0
2018-Jul-12 23:13N 37°49' W 122°25'0 0.0
2018-Jul-12 22:43N 37°49' W 122°25'0 0.0
2018-Jul-12 22:13N 37°49' W 122°25'0 0.0
2018-Jul-12 21:40N 37°49' W 122°25'0 0.0
2018-Jul-12 21:22N 37°49' W 122°25'0 0.8
2018-Jul-12 21:00N 37°49' W 122°25'3 6.8
2018-Jul-12 20:30N 37°49' W 122°29'4 2.4
2018-Jul-12 19:01N 37°49' W 122°25'0 0.4
2018-Jul-12 18:54N 37°49' W 122°25'4 9.0
2018-Jul-12 18:30N 37°49' W 122°29'4 6.3
2018-Jul-12 17:55N 37°49' W 122°25'0 0.0
2018-Jul-12 17:19N 37°49' W 122°25'0 0.0
2018-Jul-11 17:21N 37°49' W 122°25'0 0.7
2018-Jul-11 16:51N 37°49' W 122°25'2 6.1
2018-Jul-11 16:28N 37°50' W 122°28'  

Dump ship's entire track history